CYVR/YVR METAR and TAF weather

Enter ICAO airport designator
Station Type Date Time Source
CYVR METAR 2018/12/10 18:00 UTC NOAA

CYVR 101800Z 00000KT 15SM FEW008 FEW035 FEW065 SCT073 SCT090 08/06 A3020 RMK CF1SC1SC1AC1AC1 SC TR AC TR CONTRAILS SLP229


Station Type Date Time Source
CYVR Decoded METAR 2018/12/10 18:00 UTC NOAA

Vancouver International Air-Port, B. C., Canada (CYVR) 49-11N 123-10W 2M
Dec 10, 2018 - 01:00 PM EST / 2018.12.10 1800 UTC
Wind: Calm:0
Visibility: 15 mile(s):0
Sky conditions: partly cloudy
Temperature: 46 F (8 C)
Dew Point: 42 F (6 C)
Relative Humidity: 87%
Pressure (altimeter): 30.2 in. Hg (1022 hPa)
ob: CYVR 101800Z 00000KT 15SM FEW008 FEW035 FEW065 SCT073 SCT090 08/06 A3020 RMK CF1SC1SC1AC1AC1 SC TR AC TR CONTRAILS SLP229
cycle: 18

Station Type Date Time Source
CYVR TAF 2018/12/10 18:39 UTC NOAA

TAF CYVR 101738Z 1018/1124 09005KT P6SM SCT015 SCT040 BKN070
TEMPO 1018/1106 P6SM -SHRA FEW008 BKN015 BKN040
BECMG 1019/1021 10010KT
FM110600 10010KT P6SM SCT015 OVC040
TEMPO 1106/1109 5SM -RA BR BKN015 OVC040
FM110900 10012G22KT P6SM -RA SCT008 OVC015
TEMPO 1109/1112 3SM SHRA BR BKN008 OVC015
FM111200 12018G28KT 3SM -RA BR BKN008 OVC010
BECMG 1116/1118 11015KT
FM112100 09010KT P6SM -RA OVC010
RMK NXT FCST BY 102100Z


Example: see airport list